Long Lake, NY

11:10 AM EST on December 28, 2014 (GMT -0500)
Wheeler-Sack Army Air Field | Change Station
CLOSE
Current Station
Airport
Location: Fort Drum,
Elevation: 679 ft
Nearby Weather Stations

Elev 679 ft 44.06 °N, 75.72 °W | Updated 12 minutes ago

Overcast
Overcast
35 °F
Feels Like 28 °F
N
9
Wind Variable Wind from West
Gusts 16 mph

Today
High -- | Low -- °F
--% Chance of Precip.
Yesterday
High -- | Low -- °F
Precip. -- in
7:31 AM 4:26 PM
Waxing Crescent, 49% visible
Pressure 29.92 in
Visibility 10.0 miles
Clouds Overcast 2300 ft
Windchill 28 °F
Dew Point 24 °F
Humidity 64%
Rainfall 0.20 in
Snow Depth Not available.
UV 0 out of 12
Pollen .10 out of 12
Air Quality Not available.
Flu Activity Not available.
METAR KGTB 281558Z AUTO 28008G14KT 240V310 10SM OVC023 02/M04 A2990 RMK AO2 SLP130 T00181043

More Conditions Fewer Conditions

Pressure 29.92 in
Visibility 10.0 miles
Clouds Overcast 2300 ft
Windchill 28 °F
Dew Point 24 °F
Humidity 64%
Rainfall 0.20 in
Snow Depth Not available.
UV 0 out of 12
Pollen .10 out of 12
Air Quality Not available.
Flu Activity Not available.
METAR KGTB 281558Z AUTO 28008G14KT 240V310 10SM OVC023 02/M04 A2990 RMK AO2 SLP130 T00181043

More Conditions Fewer Conditions

10-Day Weather Forecast

Almanac

Astronomy

Dec. 28, 2014 Rise Set
Actual Time
Civil Twilight
Nautical Twilight
Astronomical Twilight
Moon
Length of Visible Light
Length of Day
Tomorrow will be .
, % of the Moon is Illuminated

Today's Extremes

State Highs State Lows

Community

WunderPhotos

Upload Photos

1,781,318 photos uploaded!

WunderBlogs® & News

Nearby

Air Quality

  Air Quality AQ Index Pollutant
Not available.

Snow Depth

Station Depth Elevation

Earthquake Activity

City Distance Mag. Time & Date
Minimum magnitude displayed is 2.5.

Coastal Water Temperatures

Place Temperature

Nearby Weather Stations